x

8454049 - Quonset Point, Ri (qptr1) Weather Station

4:30 - Sun 29th May 2016 All times are EDT. -4 hours from GMT.

  • Wind
    11mph, 13mph gusts
  • Sea Temp 60°f
  • Air Temp 66°f
  • Sea Pressure 1020.7mb
  • 8454049 - Quonset Point, Ri
  • 8454049 - Quonset Point, Ri

More Historic Weather Station data

Upgrade to MSW Pro to gain access to the past 30 days of data for over 8000 Wavebouys and Weather Stations around the globe.

Join Pro

Comparision Forecast

View Surf forecast
   
dim. 05/29 4:30 11 13 mph 1020.7mb 60f 66f
4:24 11 13 mph 1020.6mb 60f 66f
4:18 11 14 mph 1020.8mb 60f 66f
4:12 13 14 mph 1020.8mb 60f 66f
4:06 11 14 mph 1020.9mb 60f 67f
4:00 10 11 mph 1020.8mb 60f 67f
3:54 10 13 mph 1020.8mb 60f 68f
3:48 11 13 mph 1020.8mb 60f 68f
3:42 11 14 mph 1021mb 60f 68f
3:36 9 11 mph 1021mb 60f 68f
3:30 8 9 mph 1021mb 60f 68f
3:24 8 9 mph 1020.9mb 60f 68f
3:18 9 10 mph 1020.8mb 61f 68f
3:12 9 10 mph 1021mb 61f 68f
3:06 10 13 mph 1021.1mb 61f 68f
3:00 11 13 mph 1021.2mb 61f 68f
2:54 11 13 mph 1021.3mb 62f 68f
2:48 13 14 mph 1021.4mb 62f 67f
2:42 13 15 mph 1021.4mb 62f 67f
2:36 14 15 mph 1021.3mb 62f 67f
2:30 14 15 mph 1021.3mb 62f 67f
2:24 13 14 mph 1021.2mb 62f 67f
2:18 14 15 mph 1021.3mb 62f 67f
2:12 13 14 mph 1021.3mb 62f 67f
2:06 9 11 mph 1021.4mb 62f 68f
2:00 5 6 mph 1021.3mb 62f 72f
1:54 6 7 mph 1021.3mb 63f 72f
1:48 7 8 mph 1021.3mb 63f 72f
1:42 7 8 mph 1021.4mb 63f 72f
1:36 8 9 mph 1021.4mb 63f 72f
1:30 8 9 mph 1021.4mb 63f 72f
1:24 9 10 mph 1021.5mb 63f 72f
1:18 9 10 mph 1021.6mb 63f 72f
1:12 10 11 mph 1021.6mb 63f 72f
1:06 10 11 mph 1021.6mb 62f 72f
1:00 10 13 mph 1021.7mb 62f 72f
12:54 10 11 mph 1021.6mb 62f 71f
12:48 10 11 mph 1021.6mb 62f 71f
12:42 10 11 mph 1021.6mb 62f 71f
12:36 9 11 mph 1021.6mb 62f 71f
12:30 10 11 mph 1021.6mb 63f 71f
12:24 10 11 mph 1021.7mb 63f 70f
12:18 9 11 mph 1021.7mb 63f 70f
12:12 10 11 mph 1021.8mb 63f 70f
12:06 10 11 mph 1021.8mb 63f 70f
12:00 9 11 mph 1021.7mb 62f 70f
11:54 10 11 mph 1021.7mb 62f 70f
11:48 10 11 mph 1021.7mb 62f 69f
11:42 10 11 mph 1021.8mb 62f 69f
11:36 10 11 mph 1021.9mb 62f 69f
11:30 9 11 mph 1021.9mb 62f 69f
11:24 9 11 mph 1022mb 62f 69f
11:18 10 11 mph 1022mb 62f 69f
11:12 10 11 mph 1022mb 62f 68f
11:06 9 10 mph 1022.1mb 62f 68f
11:00 8 9 mph 1022.2mb 62f 68f
10:54 8 9 mph 1022.2mb 62f 68f
10:48 8 9 mph 1022.2mb 62f 67f
10:42 9 10 mph 1022.1mb 62f 67f
10:36 9 10 mph 1022.1mb 62f 67f
10:30 9 11 mph 1022.1mb 62f 67f
10:24 10 11 mph 1022mb 62f 67f
10:18 9 10 mph 1022mb 62f 67f
10:12 10 11 mph 1021.9mb 62f 68f
10:06 7
mph
1021.9mb 62f 67f
10:00 7 8 mph 1021.9mb 62f 67f
9:54 9 10 mph 1022mb 62f 68f
9:48 9
mph
1021.9mb 62f 68f
9:42 8
mph
1021.9mb 62f 68f
9:36 7 8 mph 1022mb 62f 68f
9:30 7 8 mph 1021.9mb 62f 67f
9:24 5 6 mph 1021.9mb 62f 67f
9:18 5 8 mph 1021.8mb 62f 67f
9:12 8 9 mph 1021.8mb 62f 67f
9:06 7 8 mph 1021.9mb 62f 67f
9:00 8 9 mph 1021.8mb 62f 67f
8:54 8 9 mph 1021.8mb 62f 67f
8:48 7 8 mph 1021.8mb 62f 67f
8:42 7 9 mph 1021.7mb 62f 67f
8:36 7 8 mph 1021.7mb 62f 67f
8:30 6
mph
1021.6mb 62f 66f
8:24 6
mph
1021.7mb 62f 65f
8:18 6 8 mph 1021.7mb 62f 65f
8:12 8 10 mph 1021.7mb 62f 64f
8:06 10
mph
1021.7mb 62f 64f
8:00 8 9 mph 1021.6mb 61f 65f
7:54 1 3 mph 1021.6mb 61f 65f
7:48 3 5 mph 1021.4mb 61f 65f
7:42 5
mph
1021.4mb 61f 65f
7:36 5
mph
1021.4mb 61f 65f
7:30 3 5 mph 1021.2mb 61f 65f
7:24 5 6 mph 1021.2mb 62f 65f
7:18 5 6 mph 1021.1mb 62f 65f
7:12 6
mph
1021.1mb 62f 65f
7:06 5 7 mph 1021mb 62f 64f
7:00 7
mph
1020.9mb 62f 64f
6:54 6 7 mph 1020.9mb 62f 64f
6:48 6 8 mph 1020.9mb 62f 64f
6:42 6 7 mph 1020.9mb 62f 64f
6:36 5
mph
1021mb 62f 65f
6:30 5 6 mph 1020.9mb 62f 65f
6:24 6
mph
1020.8mb 62f 64f
6:18 5
mph
1020.8mb 62f 65f
6:12 5 6 mph 1020.8mb 62f 65f
6:06 5 6 mph 1020.8mb 62f 66f
6:00 5 6 mph 1020.6mb 61f 66f
5:54 2 3 mph 1020.8mb 61f 65f
5:48 3
mph
1020.7mb 60f 65f
5:42 3 5 mph 1020.6mb 60f 65f
5:36 2 6 mph 1020.6mb 59f 64f
5:30 5 6 mph 1020.5mb 59f 65f
5:24 5 6 mph 1020.4mb 59f 64f
5:18 5 7 mph 1020.2mb 59f 64f
5:12 5 6 mph 1020mb 59f 64f
5:06 3 6 mph 1019.9mb 60f 64f
5:00 7 9 mph 1019.9mb 60f 64f
4:54 9
mph
1019.7mb 60f 64f
4:48 7
mph
1019.7mb 60f 64f
4:42 6 7 mph 1019.7mb 60f 65f
4:36 5 7 mph 1019.8mb 60f 65f
4:30 7 9 mph 1019.8mb 60f 65f
4:24 8 9 mph 1019.8mb 60f 66f
4:18 8
mph
1019.8mb 60f 66f
4:12 7
mph
1019.8mb 60f 65f
4:06 5 6 mph 1019.9mb 61f 66f
4:00 5 7 mph 1019.9mb 61f 67f
3:54 6 7 mph 1020mb 61f 67f
3:48 6 8 mph 1019.9mb 61f 67f
3:42 7 8 mph 1019.9mb 61f 67f
3:36 7 8 mph 1020mb 61f 67f
3:30 8 9 mph 1019.9mb 61f 68f
3:24 8 10 mph 1019.9mb 61f 68f
3:18 9 10 mph 1019.9mb 61f 68f
3:12 8 10 mph 1019.9mb 61f 67f
3:06 8 9 mph 1020mb 62f 68f
3:00 7 10 mph 1020mb 62f 68f
2:54 8 11 mph 1020mb 62f 68f
2:48 8 11 mph 1020mb 62f 68f
2:42 9 11 mph 1019.9mb 62f 68f
2:36 9 14 mph 1020mb 62f 69f
2:30 10 13 mph 1020mb 62f 69f
2:24 8 10 mph 1020.1mb 62f 68f
2:18 8 10 mph 1020.1mb 62f 67f
2:12 9 11 mph 1020.1mb 62f 68f
2:06 8 11 mph 1020.1mb 63f 67f
2:00 10 14 mph 1020.1mb 63f 67f
1:54 11 14 mph 1020mb 63f 69f
1:48  -  mph 1020mb 63f 69f
1:42  -  mph 1020mb 64f 69f
1:36  -  mph 1020mb 64f 69f
1:30 11 14 mph 1020mb 64f 68f
1:24 11 15 mph 1019.9mb 64f 68f
1:18 11 14 mph 1020mb 64f 69f
1:12 10 14 mph 1020mb 64f 69f
1:06 10 11 mph 1020.1mb 64f 69f
1:00 10 13 mph 1020.1mb 64f 68f
12:54 11 14 mph 1020mb 64f 69f
12:48 10 13 mph 1020mb 64f 69f
12:42 9 10 mph 1020.1mb 64f 69f
12:36 9
mph
1020.2mb 64f 69f
12:30 8 10 mph 1020.2mb 64f 69f
12:24 8 10 mph 1020.2mb 64f 69f
12:18 7 8 mph 1020.2mb 64f 69f
12:12 8 9 mph 1020.2mb 64f 69f
12:06 8 10 mph 1020.2mb 64f 69f
12:00 8 10 mph 1020.2mb 64f 69f
sam. 05/28 11:54 8 10 mph 1020.1mb 64f 69f
11:48 8 11 mph 1020mb 64f 70f
11:42 11 13 mph 1020mb 64f 70f
11:36 11 14 mph 1020mb 64f 71f
11:30 11 14 mph 1020mb 64f 71f
11:24 11 14 mph 1020mb 64f 71f
11:18  -  mph 1020mb 63f 71f
11:12  -  mph 1020mb 63f 71f
11:06  -  mph 1020mb 63f 71f
11:00  -  mph 1019.9mb 63f 71f
10:54  -  mph 1019.9mb 63f 71f
10:48 9 10 mph - 64f -
10:42 8 10 mph - 63f -
10:36 7 9 mph - 63f -
10:30 7 8 mph 1020mb - -
10:24 6 8 mph 1020mb - -
10:18  -  mph 1020mb 63f 71f
10:12  -  mph 1019.9mb 63f 70f
10:06  -  mph 1020mb 63f 70f
10:00  -  mph 1020mb - -
9:54  -  mph 1020mb - -
9:48  -  mph - 63f 69f
9:42  -  mph - 63f 69f
9:36  -  mph - 63f 70f
9:30 9 10 mph - - -
9:24 10 11 mph - - -
9:18  -  mph 1019.8mb 64f 70f
9:12  -  mph 1019.7mb 64f 70f
9:06  -  mph 1019.7mb 64f 70f
9:00  -  mph 1019.6mb - -
8:54  -  mph 1019.6mb - -
8:48  -  mph - 64f -
8:42  -  mph - 64f -
8:36  -  mph - 64f -
8:30 8 10 mph - - -
8:24 7 8 mph - - -
8:18  -  mph 1019.3mb 64f -
8:12  -  mph 1019.3mb 64f -
8:06  -  mph 1019.3mb 64f -
8:00 9 13 mph - - -
7:54 9 11 mph - - -
7:48  -  mph 1019.2mb - -
7:42  -  mph 1019.1mb - -
7:36  -  mph 1019.1mb - -
7:30 11 15 mph 1019.1mb - -
7:24 11 14 mph 1019.1mb - -
7:18  -  mph - 64f 69f
7:12  -  mph - 64f 69f
7:06  -  mph - 64f 69f
7:00 11 14 mph - - -
6:54 10 11 mph - - -
6:48 11 14 mph - - -
6:42 13 15 mph - - -
6:36 14
mph
- - -
6:30  -  mph 1018.6mb 63f -
6:24  -  mph 1018.6mb 63f -
6:18  -  mph 1018.6mb 63f 68f
6:12  -  mph 1018.6mb 63f 71f
6:06  -  mph 1018.5mb 63f 76f
6:00 13 14 mph - - -
5:54 14
mph
- - -
5:48  -  mph 1018.6mb 63f 74f
5:42  -  mph 1018.6mb 63f 76f
5:36  -  mph 1018.6mb 63f 76f
5:30 16 20 mph 1018.5mb 62f 77f
5:24 14 17 mph 1018.5mb 62f 76f
5:18 13 16 mph 1018.4mb 62f 75f
5:12 15 17 mph 1018.3mb 62f 78f
5:06 14 18 mph 1018.3mb 61f 77f
5:00 18 21 mph 1018.2mb 61f 79f
4:54 16 22 mph 1018.2mb 61f 78f
4:48 17 21 mph 1018.2mb 61f 78f
4:42 15 17 mph 1018.2mb 60f 77f
4:36 14 17 mph 1018.2mb 60f 71f
4:30 16 18 mph 1018.1mb 60f 70f
4:24 17 18 mph 1018.2mb 60f 69f
4:18 17 20 mph 1018.2mb 61f 69f
4:12 17 20 mph 1018.2mb 60f 69f
4:06 18 21 mph 1018.2mb 60f 69f
4:00 16 18 mph 1018.2mb 60f 70f
3:54 17 18 mph 1018.3mb 60f 69f
3:48 16 17 mph 1018.4mb 60f 69f
3:42 16 18 mph 1018.5mb 60f 69f
3:36 16 18 mph 1018.5mb 60f 68f
3:30 16 18 mph 1018.6mb 60f 68f
3:24 17 18 mph 1018.6mb 60f 68f
3:18 17 20 mph 1018.5mb 61f 68f
3:12 18 21 mph 1018.6mb 60f 68f
3:06 21 22 mph 1018.6mb 60f 68f
3:00 20 21 mph 1018.6mb 61f 68f
2:54 18 21 mph 1018.6mb 61f 68f
2:48 20 21 mph 1018.7mb 61f 67f
2:42 20 21 mph 1018.7mb 61f 67f
2:36 20 22 mph 1018.7mb 61f 67f
2:30 20 22 mph 1018.7mb 60f 67f
2:24 21 23 mph 1018.7mb 60f 67f
2:18 21 23 mph 1018.8mb 60f 67f
2:12 20 23 mph 1018.7mb 61f 67f
2:06 20 22 mph 1018.8mb 61f 67f
2:00 20 22 mph 1018.8mb 61f 67f
1:54 21 22 mph 1018.8mb 61f 68f
1:48 20 22 mph 1018.8mb 61f 68f
1:42 20 22 mph 1018.9mb 61f 69f
1:36 20 21 mph 1018.9mb 62f 69f
1:30 20 21 mph 1018.9mb 62f 68f
1:24 21 22 mph 1019mb 62f 69f
1:18 21 22 mph 1019.1mb 62f 68f
1:12 21 22 mph 1019.1mb 62f 69f
1:06 20 22 mph 1019.1mb 62f 68f
1:00 21 23 mph 1019.2mb 62f 68f
12:54 21 22 mph 1019.2mb 62f 68f
12:48 20 23 mph 1019.2mb 62f 68f
12:42 21 23 mph 1019.2mb 62f 67f
12:36 21 23 mph 1019.2mb 62f 67f
12:30 20 22 mph 1019.3mb 62f 67f
12:24 20 22 mph 1019.3mb 62f 67f
12:18 20 22 mph 1019.3mb 62f 67f
12:12 18 21 mph 1019.3mb 62f 67f
12:06 20 21 mph 1019.3mb 62f 68f
12:00 18 21 mph 1019.3mb 62f 67f
11:54 20 21 mph 1019.4mb 62f 67f
11:48 18 20 mph 1019.4mb 62f 68f
11:42 16 18 mph 1019.4mb 62f 68f
11:36 18 20 mph 1019.4mb 62f 68f
11:30 17 18 mph 1019.5mb 62f 67f
11:24 17 18 mph 1019.5mb 62f 67f
11:18 17 20 mph 1019.5mb 62f 67f
11:12 17 21 mph 1019.5mb 62f 67f
11:06 18 20 mph 1019.5mb 62f 67f
11:00 17 20 mph 1019.5mb 62f 67f
10:54 17 18 mph 1019.6mb 62f 67f
10:48 16 17 mph 1019.6mb 61f 67f
10:42 15 16 mph 1019.7mb 61f 67f
10:36 15 16 mph 1019.6mb 61f 67f
10:30 15 16 mph 1019.6mb 61f 68f
10:24 15 16 mph 1019.6mb 61f 67f
10:18 15 16 mph 1019.6mb 61f 67f
10:12 15 16 mph 1019.6mb 61f 66f
10:06 14 16 mph 1019.6mb 61f 66f
10:00 13 14 mph 1019.6mb 61f 66f
9:54 13 14 mph 1019.5mb 61f 66f
9:48 13
mph
1019.4mb 61f 67f
9:42 11 13 mph 1019.5mb 61f 67f
9:36 10 11 mph 1019.5mb 61f 67f
9:30 10
mph
1019.5mb 61f 68f
9:24 8
mph
1019.5mb 61f 69f
9:18 6 7 mph 1019.6mb 61f 69f
9:12 7 8 mph 1019.6mb 61f 73f
9:06 8 9 mph 1019.6mb 61f 72f
9:00 8 9 mph 1019.6mb 61f 71f
8:54 9 10 mph 1019.6mb 61f 71f
8:48 8 9 mph 1019.7mb 61f 71f
8:42 8 9 mph 1019.7mb 60f 70f
8:36 8 9 mph 1019.7mb 60f 70f
8:30 8
mph
1019.7mb 60f 69f
8:24 8 9 mph 1019.6mb 60f 69f
8:18 9
mph
1019.6mb 60f 69f
8:12 8 9 mph 1019.6mb 60f 69f
8:06 8 11 mph 1019.6mb 60f 68f
8:00 10 11 mph 1019.6mb 60f 68f
7:54 11 13 mph 1019.6mb 60f 69f
7:48 9 10 mph 1019.6mb 60f 68f
7:42 9 11 mph 1019.7mb 60f 68f
7:36 10 11 mph 1019.6mb 60f 68f
7:30 8 10 mph 1019.6mb 60f 68f
7:24 9 11 mph 1019.5mb 60f 67f
7:18 8 13 mph 1019.5mb 60f 67f
7:12 8 10 mph 1019.5mb 60f 67f
7:06 9 11 mph 1019.5mb 60f 67f
7:00 10 11 mph 1019.4mb 61f 67f
6:54 9 14 mph 1019.3mb 61f 67f
6:48 8 11 mph 1019.3mb 61f 66f
6:42 8 11 mph 1019.2mb 61f 66f
6:36 7 9 mph 1019.1mb 61f 66f
6:30 8 11 mph 1019.1mb 61f 66f
6:24 8 10 mph 1019.1mb 61f 65f
6:18 9 11 mph 1019mb 61f 65f
6:12 9 10 mph 1019.1mb 61f 65f
6:06 8 9 mph 1019mb 61f 65f
6:00 7 9 mph 1018.9mb 61f 65f
5:54 8 9 mph 1018.9mb 61f 65f
5:48 7 8 mph 1018.8mb 61f 65f
5:42 7 8 mph 1018.8mb 61f 64f
5:36 7 8 mph 1018.8mb 61f 64f
5:30 8 9 mph 1018.7mb 61f 64f
5:24 8 9 mph 1018.7mb 61f 64f
5:18 7 9 mph 1018.8mb 61f 63f
5:12 7 10 mph 1018.7mb 61f 63f
5:06 8 11 mph 1018.6mb 61f 63f
5:00 8 9 mph 1018.6mb 61f 63f
4:54 7 9 mph 1018.6mb 61f 63f
4:48 7 8 mph 1018.6mb 60f 62f
4:42 7 8 mph 1018.6mb 60f 63f
4:36 7 8 mph 1018.5mb 59f 63f
4:30 8
mph
1018.5mb 59f 63f
4:24 8
mph
1018.4mb 59f 63f
4:18 8 10 mph 1018.5mb 59f 63f
4:12 8 10 mph 1018.5mb 58f 62f
4:06 9 11 mph 1018.4mb 58f 63f
4:00 10 11 mph 1018.4mb 59f 62f
3:54 9 10 mph 1018.4mb 59f 64f
3:48 9 10 mph 1018.4mb 59f 65f
3:42 10 11 mph 1018.5mb 59f 65f
3:36 9 13 mph 1018.5mb 59f 65f
3:30 10 14 mph 1018.5mb 59f 65f
3:24 9 13 mph 1018.5mb 59f 65f
3:18 10 14 mph 1018.5mb 60f 65f
3:12 9 14 mph 1018.5mb 60f 65f
3:06 13 15 mph 1018.5mb 60f 66f
3:00 11 14 mph 1018.5mb 60f 66f
2:54 11 15 mph 1018.6mb 60f 65f
2:48 9 11 mph 1018.6mb 60f 65f
2:42 10 14 mph 1018.6mb 60f 65f
2:36 11 16 mph 1018.5mb 60f 65f
2:30 11 14 mph 1018.5mb 60f 65f
2:24 11 15 mph 1018.6mb 60f 65f
2:18  -  mph 1018.7mb 61f 65f
2:12  -  mph 1018.7mb 61f 66f
2:06  -  mph 1018.8mb 61f 66f
2:00  -  mph 1018.8mb 61f 65f
1:54  -  mph 1018.8mb 61f 65f
1:48 11 14 mph 1018.7mb 61f 65f
1:42 11 16 mph 1018.6mb 61f 65f
1:36 11 15 mph 1018.6mb 62f 65f
1:30 11 15 mph 1018.6mb 62f 65f
1:24 10 15 mph 1018.6mb 62f 65f
1:18 11 14 mph 1018.7mb 62f 65f
1:12 13 14 mph 1018.7mb 62f 65f
1:06 11 14 mph 1018.8mb 62f 65f
1:00 10 13 mph 1018.9mb 62f 64f
12:54 11 14 mph 1018.9mb 63f 64f
12:48 11 14 mph 1018.9mb 63f 64f
12:42 11 14 mph 1018.9mb 63f 64f
12:36 11 14 mph 1018.9mb 63f 64f
12:30 11 15 mph 1018.9mb 63f 64f
12:24 14 15 mph 1019mb 63f 64f
12:18 13 14 mph 1019mb 63f 64f
12:12 14 16 mph 1018.9mb 64f 64f
12:06 14 15 mph 1019mb 64f 65f
12:00 14 17 mph 1019mb 64f 65f
ven. 05/27 11:54 14 17 mph 1019mb 64f 65f
11:48  -  mph 1018.9mb 64f 66f
11:42  -  mph 1018.8mb 64f 66f
11:36  -  mph 1018.8mb 64f 66f
11:30 16 17 mph 1018.7mb 64f 66f
11:24 15 20 mph 1018.7mb 64f 66f
11:18  -  mph 1018.7mb 64f -
11:12  -  mph 1018.6mb 64f -
11:06  -  mph 1018.6mb 64f -
11:00 16 20 mph 1018.6mb 64f -
10:54 17 21 mph 1018.6mb 65f -
10:48  -  mph - 65f -
10:42  -  mph - 65f -
10:36  -  mph - 65f -
10:30  -  mph 1018.7mb - -
10:24  -  mph 1018.8mb - -
10:18  -  mph 1018.9mb - 66f
10:12  -  mph 1019mb - 66f
10:06  -  mph 1019mb - 67f
10:00 14 16 mph 1018.8mb - -
9:54 15 18 mph 1018.8mb - -
9:48  -  mph 1018.8mb 65f -
9:42  -  mph 1018.7mb 65f -
9:36  -  mph 1018.7mb 65f -
9:30 14 17 mph 1018.7mb 65f -
9:24 11 16 mph 1018.6mb 65f -
9:18  -  mph 1018.6mb 65f -
9:12  -  mph 1018.6mb 65f -
9:06  -  mph 1018.5mb 65f -
9:00 10 13 mph 1018.5mb - -
8:54 9 13 mph 1018.3mb - -
8:48  -  mph 1018.2mb 65f -
8:42  -  mph 1018mb 65f -
8:36  -  mph 1018mb 65f -
8:30 14 15 mph 1018mb 65f -
8:24 14 16 mph 1018.1mb 65f -
8:18  -  mph - 65f 64f
8:12  -  mph - 65f 64f
8:06  -  mph - 65f 64f
8:00  -  mph 1018.2mb 65f -
7:54  -  mph 1018.2mb 65f -
7:48  -  mph 1018.2mb 65f -
7:42  -  mph 1018mb 65f -
7:36  -  mph 1018mb 66f -
7:30 15 16 mph 1018.1mb 66f -
7:24 14 16 mph 1018mb 66f -
7:18  -  mph 1018mb 65f 65f
7:12  -  mph 1018.1mb 65f 65f
7:06  -  mph 1018mb 66f 72f
7:00 20 21 mph 1017.9mb - -
6:54 18 22 mph 1017.9mb - -
6:48 17 22 mph 1017.9mb - -
6:42 15 21 mph 1017.9mb - -
6:36 15 17 mph 1018mb - -
6:30 15 20 mph 1018mb 66f -
6:24 18 20 mph 1018mb 66f -
6:18  -  mph 1017.9mb 65f -
6:12  -  mph 1017.7mb 65f -
6:06  -  mph 1017.8mb 65f -
6:00  -  mph 1017.7mb - -
5:54  -  mph 1017.7mb - -
5:48  -  mph 1017.6mb 65f -
5:42  -  mph 1017.7mb 65f -
5:36  -  mph 1017.7mb 65f -
5:30 21 25 mph 1017.8mb 65f 74f
5:24 24 29 mph 1017.7mb 65f 73f
5:18 23 28 mph 1017.7mb 64f 73f
5:12 22 26 mph 1017.8mb 64f 74f
5:06 25 29 mph 1017.8mb 64f 74f
5:00 21 28 mph 1017.9mb 64f 74f
4:54 24 28 mph 1017.8mb 64f 74f
4:48 24 28 mph 1017.8mb 64f 74f
4:42 24 28 mph 1017.7mb 64f 74f
4:36 18 24 mph 1017.7mb 64f 74f
4:30 22 24 mph 1017.7mb 64f 74f
4:24 15 20 mph 1017.7mb 63f 74f
4:18 15 18 mph 1017.8mb 63f 74f
4:12 14 18 mph 1017.8mb 62f 74f
4:06 16 21 mph 1017.9mb 61f 74f
4:00 14 18 mph 1017.8mb 61f 74f
3:54 16 20 mph 1017.9mb 60f 74f
3:48 18 21 mph 1018mb 60f 74f
3:42 15 18 mph 1018.1mb 60f 71f
3:36 16 18 mph 1018mb 60f 69f
3:30 15 17 mph 1018.1mb 60f 69f
3:24 16 18 mph 1018mb 60f 67f
3:18 16 18 mph 1018.1mb 60f 67f
3:12 16 18 mph 1018.1mb 60f 67f
3:06 16 20 mph 1018.1mb 60f 66f
3:00 17 20 mph 1018.2mb 59f 66f
2:54 15 17 mph 1018.2mb 59f 66f
2:48 15 17 mph 1018.2mb 59f 65f
2:42 16 18 mph 1018.3mb 58f 65f
2:36 16 17 mph 1018.3mb 58f 65f
2:30 17 18 mph 1018.4mb 58f 65f
2:24 16 17 mph 1018.5mb 59f 65f
2:18 16 18 mph 1018.4mb 59f 65f
2:12 16 18 mph 1018.4mb 59f 64f
2:06 17 18 mph 1018.5mb 59f 64f
2:00 17 18 mph 1018.5mb 58f 65f
1:54 17 18 mph 1018.6mb 58f 64f
1:48 17 18 mph 1018.7mb 58f 64f
1:42 18 21 mph 1018.8mb 58f 63f
1:36 20 22 mph 1018.8mb 59f 63f
1:30 20 22 mph 1018.9mb 59f 62f
1:24 18 21 mph 1018.9mb 59f 62f
1:18 18 21 mph 1019mb 59f 62f
1:12 20 21 mph 1019.2mb 59f 63f
1:06 18 21 mph 1019.2mb 59f 63f
1:00 18 22 mph 1019.2mb 59f 63f
12:54 20 22 mph 1019.1mb 59f 63f
12:48 18 21 mph 1019mb 59f 63f
12:42 17 20 mph 1019mb 59f 63f
12:36 17 21 mph 1019mb 59f 62f
12:30 18 20 mph 1019.1mb 59f 63f
12:24 16 18 mph 1019.3mb 60f 62f
12:18 16 18 mph 1019.4mb 60f 62f
12:12 16 18 mph 1019.2mb 60f 62f
12:06 16 17 mph 1019.4mb 60f 61f
12:00 17 20 mph 1019.5mb 61f 61f
11:54 17 18 mph 1019.4mb 61f 61f
11:48 15 16 mph 1019.4mb 61f 62f
11:42 13 14 mph 1019.4mb 62f 62f
11:36 10 11 mph 1019.4mb 62f 62f
11:30 10 13 mph 1019.3mb 62f 63f
11:24 13 14 mph 1019.3mb 62f 62f
11:18 13 14 mph 1019.3mb 62f 62f
11:12 13 15 mph 1019.5mb 62f 62f
11:06 11 14 mph 1019.6mb 61f 62f
11:00 10 14 mph 1019.6mb 61f 62f
10:54 14 15 mph 1019.6mb 61f 62f
10:48 14 15 mph 1019.7mb 61f 62f
10:42 13 15 mph 1019.7mb 61f 62f
10:36 10 13 mph 1019.7mb 61f 62f
10:30 10 11 mph 1019.6mb 61f 62f
10:24 10 11 mph 1019.5mb 61f 62f
10:18 6 8 mph 1019.6mb 61f 63f
10:12 6 7 mph 1019.6mb 61f 63f
10:06 3 6 mph 1019.6mb 61f 63f
10:00 6 7 mph 1019.6mb 61f 63f
9:54 3 5 mph 1019.6mb 61f 64f
9:48 1 5 mph 1019.6mb 61f 65f
9:42 5 7 mph 1019.6mb 60f 63f
9:36 6
mph
1019.5mb 60f 63f
9:30 6 7 mph 1019.5mb 60f 62f
9:24 6 7 mph 1019.4mb 61f 62f
9:18 6 7 mph 1019.4mb 61f 62f
9:12 6 7 mph 1019.5mb 61f 62f
9:06 7 8 mph 1019.5mb 61f 62f
9:00 7 9 mph 1019.5mb 61f 62f
8:54 8 9 mph 1019.6mb 61f 61f
8:48 8 9 mph 1019.5mb 60f 61f
8:42 9 10 mph 1019.5mb 60f 61f
8:36 9 10 mph 1019.5mb 60f 61f
8:30 8
mph
1019.5mb 60f 61f
8:24 7 8 mph 1019.6mb 60f 61f
8:18 7
mph
1019.5mb 60f 60f
8:12 7 8 mph 1019.6mb 60f 60f
8:06 7 8 mph 1019.6mb 60f 60f
8:00 7 8 mph 1019.6mb 60f 60f
7:54 7 8 mph 1019.6mb 61f 60f
7:48 7 8 mph 1019.6mb 61f 60f
7:42 7
mph
1019.7mb 61f 60f
7:36 7 8 mph 1019.8mb 61f 60f
7:30 7 8 mph 1019.8mb 61f 59f
7:24 7
mph
1019.9mb 61f 59f
7:18 7 8 mph 1019.9mb 61f 59f
7:12 8
mph
1019.9mb 61f 59f
7:06 7 8 mph 1020mb 61f 59f
7:00 7 9 mph 1019.9mb 61f 59f
6:54 8 9 mph 1019.9mb 61f 59f
6:48 9 10 mph 1019.8mb 61f 59f
6:42 9 10 mph 1019.7mb 61f 59f
6:36 9 10 mph 1019.9mb 61f 59f
6:30 8 9 mph 1019.8mb 62f 59f
6:24 8 9 mph 1019.8mb 62f 59f
6:18 8 10 mph 1019.8mb 62f 59f
6:12 9 10 mph 1019.7mb 62f 59f
6:06 8 9 mph 1019.7mb 62f 59f
6:00 8 9 mph 1019.8mb 62f 59f
5:54 8 9 mph 1019.6mb 62f 59f
5:48 8 9 mph 1019.6mb 62f 59f
5:42 8
mph
1019.6mb 62f 59f
5:36 7 9 mph 1019.6mb 62f 59f
5:30 8 9 mph 1019.6mb 62f 59f
5:24 8 9 mph 1019.6mb 62f 59f
5:18 8 9 mph 1019.5mb 62f 59f
5:12 9 10 mph 1019.5mb 62f 59f
5:06 8 9 mph 1019.5mb 62f 59f
5:00 8 9 mph 1019.5mb 61f 59f
4:54 7 8 mph 1019.5mb 61f 59f
4:48 7
mph
1019.5mb 61f 59f
4:42 7 8 mph 1019.5mb 61f 59f
4:36 8 9 mph 1019.5mb 61f 59f
4:30 8 9 mph 1019.6mb 61f 59f
4:24 7 8 mph 1019.5mb 61f 59f
4:18 7 8 mph 1019.4mb 60f 59f
4:12 7 8 mph 1019.3mb 60f 59f
4:06 7
mph
1019.3mb 60f 59f
4:00 6 7 mph 1019.4mb 59f 59f
3:54 6 7 mph 1019.4mb 58f 59f
3:48 6 7 mph 1019.3mb 58f 59f
3:42 7
mph
1019.3mb 58f 59f
3:36 7 8 mph 1019.3mb 58f 59f
3:30 7
mph
1019.3mb 58f 59f
3:24 6 8 mph 1019.3mb 58f 60f
3:18 8
mph
1019.3mb 58f 60f
3:12 8 9 mph 1019.3mb 58f 60f
3:06 8 9 mph 1019.3mb 58f 60f
3:00 8
mph
1019.3mb 58f 60f
2:54 7 8 mph 1019.3mb 58f 60f
2:48 7 8 mph 1019.3mb 58f 60f
2:42 6 8 mph 1019.2mb 58f 60f
2:36 8 10 mph 1019.1mb 58f 60f
2:30 9 10 mph 1019mb 58f 60f
2:24 8 9 mph 1019.1mb 58f 60f
2:18 8 9 mph 1019.1mb 58f 61f
2:12 8 9 mph 1019mb 58f 61f
2:06 7 8 mph 1019mb 58f 61f
2:00  -  mph 1019mb 58f 61f
1:54  -  mph 1019mb 58f 61f
1:48  -  mph 1019mb 58f 61f
1:42  -  mph 1019mb 58f 61f
1:36  -  mph 1019mb 58f 61f
1:30 8
mph
1018.9mb 58f 62f
1:24 8 9 mph 1018.8mb 58f 62f
1:18 8
mph
1018.9mb 58f 62f
1:12 7 10 mph 1018.9mb 58f 62f
1:06 8 9 mph 1019mb 58f 62f
1:00 8 9 mph 1019.1mb 58f 61f
12:54 7 8 mph 1019.1mb 59f 61f
12:48 7 8 mph 1019.2mb 59f 62f
12:42 7 8 mph 1019.2mb 59f 62f
12:36 7 9 mph 1019.1mb 59f 62f
12:30 7
mph
1019.1mb 59f 62f
12:24 6 7 mph 1019mb 59f 62f
12:18 6 7 mph 1019.1mb 59f 62f
12:12 6
mph
1019.1mb 59f 62f
12:06 6 7 mph 1019.1mb 60f 63f
12:00 6 8 mph 1019.1mb 60f 63f
jeu. 05/26 11:54 8 9 mph 1018.9mb 60f 62f
11:48  -  mph 1018.8mb 60f 62f
11:42  -  mph 1018.9mb 60f 63f
11:36  -  mph 1019.1mb 60f 64f
11:30 7 8 mph 1019.2mb 61f 63f
11:24 7 9 mph 1019.2mb 61f 63f
11:18  -  mph 1019.2mb 62f -
11:12  -  mph 1019.2mb 62f -
11:06  -  mph 1019.1mb 63f -
11:00  -  mph 1019.1mb 63f -
10:54  -  mph 1019mb 64f -
10:48 9 10 mph 1018.9mb - -
10:42 10 11 mph 1019mb - -
10:36 11 13 mph 1018.9mb - -
10:30 11 13 mph - - -
10:24 11 13 mph - - -
10:18  -  mph 1018.9mb 64f 65f
10:12  -  mph 1018.9mb 64f 65f
10:06  -  mph 1018.9mb 64f 66f
10:00  -  mph 1018.9mb - -
9:54  -  mph 1018.8mb - -
9:48  -  mph 1018.7mb - -
9:42  -  mph 1018.7mb - -
9:36  -  mph 1018.6mb - -
9:30 14 15 mph 1018.5mb - -
9:24 14
mph
1018.4mb - -
9:18  -  mph 1018.3mb 63f -
9:12  -  mph 1018.3mb 63f -
9:06  -  mph 1018.2mb 64f -
9:00  -  mph 1018.2mb - -
8:54  -  mph 1018.1mb - -
8:48  -  mph 1018.1mb - -
8:42  -  mph 1018mb - -
8:36  -  mph 1017.9mb - -
8:30 13 14 mph 1017.8mb 63f -
8:24 14 15 mph 1017.8mb 63f -
8:18  -  mph - 63f 67f
8:12  -  mph - 63f 67f
8:06  -  mph - 63f 67f
8:00  -  mph 1017.7mb - -
7:54  -  mph 1017.7mb - -
7:48  -  mph - 63f -
7:42  -  mph - 63f -
7:36  -  mph - 63f -
7:30 13 14 mph 1017.7mb 63f -
7:24 14
mph
1017.8mb 63f -
7:18  -  mph - 63f 70f
7:12  -  mph - 63f 70f
7:06  -  mph - 63f 70f
7:00 14 16 mph 1017.6mb - -
6:54 15 16 mph 1017.5mb - -
6:48 16
mph
1017.5mb - -
6:42 15 17 mph 1017.5mb - -
6:36 16
mph
1017.4mb - -
6:30 15 16 mph 1017.3mb 62f -
6:24 14 15 mph 1017.3mb 62f -
6:18  -  mph 1017.3mb 63f 70f
6:12  -  mph 1017.3mb 63f 70f
6:06  -  mph 1017.4mb 63f 69f
6:00 11 13 mph 1017.4mb 63f -
5:54 13 14 mph 1017.4mb 63f -
5:48  -  mph - 63f -
5:42  -  mph - 63f -
5:36  -  mph - 63f -
5:30 14 15 mph 1017.4mb 63f 71f
5:24 14 15 mph 1017.4mb 63f 71f
5:18 14 16 mph 1017.5mb 63f 70f
5:12 14 17 mph 1017.4mb 63f 70f
5:06 16 17 mph 1017.4mb 63f 69f
5:00 15 18 mph 1017.4mb 63f 69f
4:54 16 18 mph 1017.4mb 63f 69f
4:48 16 18 mph 1017.4mb 63f 69f
4:42 17 20 mph 1017.4mb 63f 68f
4:36 18 21 mph 1017.5mb 63f 68f
4:30 17 21 mph 1017.5mb 63f 68f
4:24 18 21 mph 1017.5mb 63f 68f
4:18 18 20 mph 1017.4mb 63f 69f
4:12 17 20 mph 1017.5mb 63f 70f
4:06 18 21 mph 1017.5mb 63f 70f
4:00 18 20 mph 1017.5mb 63f 70f
3:54 17 20 mph 1017.5mb 62f 71f
3:48 16 17 mph 1017.4mb 62f 72f
3:42 16 17 mph 1017.4mb 62f 72f
3:36 15 20 mph 1017.4mb 61f 73f
3:30 17 20 mph 1017.4mb 60f 73f
3:24 18 21 mph 1017.4mb 61f 73f
3:18 16 18 mph 1017.4mb 61f 73f
3:12 16 18 mph 1017.5mb 60f 73f
3:06 17 18 mph 1017.5mb 60f 74f
3:00 16 18 mph 1017.6mb 60f 73f
2:54 18 20 mph 1017.5mb 59f 73f
2:48 16 20 mph 1017.6mb 59f 72f
2:42 17 20 mph 1017.6mb 59f 71f
2:36 17 20 mph 1017.7mb 58f 71f
2:30 17 20 mph 1017.8mb 58f 71f
2:24 17 20 mph 1017.8mb 58f 71f
2:18 16 20 mph 1018mb 58f 71f
2:12 17 20 mph 1018.1mb 58f 71f
2:06 16 18 mph 1018.2mb 58f 71f
2:00 16 17 mph 1018.2mb 58f 71f
1:54 15 17 mph 1018.3mb 58f 71f
1:48  -  mph 1018.3mb 58f 71f
1:42  -  mph 1018.4mb 58f 70f
1:36  -  mph 1018.4mb 58f 70f
1:30 16 17 mph 1018.3mb 58f 70f
1:24 17 18 mph 1018.3mb 58f 70f
1:18 17 18 mph 1018.3mb 58f 71f
1:12 17 20 mph 1018.4mb 58f 70f
1:06 17 18 mph 1018.4mb 58f 69f
1:00 17 20 mph 1018.5mb 58f 69f
12:54 17
mph
1018.5mb 58f 69f
12:48 16 17 mph 1018.6mb 58f 69f
12:42 16 17 mph 1018.6mb 58f 69f
12:36 15 16 mph 1018.6mb 58f 69f
12:30 15 17 mph 1018.6mb 58f 69f
12:24 15 16 mph 1018.6mb 58f 69f
12:18 13 14 mph 1018.7mb 58f 69f
12:12 13 14 mph 1018.8mb 59f 69f
12:06 13 14 mph 1018.9mb 59f 69f
12:00 13 14 mph 1018.9mb 59f 69f
11:54 13 14 mph 1018.9mb 59f 69f
11:48 11 13 mph 1018.9mb 59f 69f
11:42 11
mph
1019mb 59f 68f
11:36 10 11 mph 1019mb 59f 68f
11:30 11 13 mph 1019.1mb 59f 68f
11:24 13 14 mph 1019.1mb 59f 69f
11:18 10 13 mph 1019.1mb 59f 68f
11:12 9 10 mph 1019.1mb 59f 68f
11:06 8
mph
1019.1mb 59f 67f
11:00 8 9 mph 1019.2mb 59f 67f
10:54 8 9 mph 1019.2mb 59f 68f
10:48 6 7 mph 1019.1mb 59f 74f
10:42 6
mph
1019.2mb 59f 74f
10:36 6
mph
1019.1mb 59f 74f
10:30 6
mph
1019.1mb 59f 73f
10:24 6 7 mph 1019.2mb 59f 73f
10:18 7
mph
1019.2mb 60f 73f
10:12 7
mph
1019.2mb 60f 72f
10:06 6 7 mph 1019.2mb 60f 71f
10:00 6
mph
1019.2mb 60f 71f
9:54 5
mph
1019.2mb 60f 72f
9:48 5
mph
1019.3mb 60f 71f
9:42 3
mph
1019.3mb 60f 69f
9:36 3
mph
1019.3mb 60f 68f
9:30 3 5 mph 1019.4mb 60f 68f
9:24 3 5 mph 1019.5mb 60f 67f
9:18 5
mph
1019.5mb 60f 67f
9:12 5
mph
1019.5mb 60f 67f
9:06 5
mph
1019.5mb 60f 67f
9:00 5
mph
1019.6mb 60f 67f
8:54 5
mph
1019.5mb 60f 67f
8:48 3
mph
1019.5mb 60f 67f
8:42 3
mph
1019.5mb 60f 68f
8:36 2
mph
1019.5mb 60f 68f
8:30 2 3 mph 1019.5mb 60f 67f
8:24 3
mph
1019.5mb 60f 67f
8:18 3 5 mph 1019.5mb 60f 68f
8:12 3
mph
1019.4mb 60f 68f
8:06 2 3 mph 1019.5mb 60f 68f
8:00 3
mph
1019.4mb 59f 67f
7:54 2 3 mph 1019.3mb 59f 67f
7:48 2
mph
1019.2mb 60f 68f
7:42 1 2 mph 1019.2mb 60f 68f
7:36 2
mph
1019.2mb 60f 67f
7:30 2
mph
1019.2mb 60f 66f
7:24  -  mph 1019.1mb 59f 66f
7:18  -  2 mph 1019.1mb 59f 67f
7:12 1 2 mph 1019.1mb 59f 70f
7:06 1
mph
1019.1mb 59f 69f
7:00  -  1 mph 1019.1mb 59f 69f
6:54  -  mph 1019.1mb 59f 67f
6:48  -  1 mph 1019.1mb 59f 68f
6:42  -  mph 1019mb 59f 68f
6:36  -  mph 1019mb 59f 69f
6:30  -  1 mph 1018.9mb 59f 69f
6:24  -  1 mph 1018.9mb 59f 66f
6:18  -  1 mph 1018.8mb 59f 67f
6:12  -  1 mph 1018.8mb 59f 66f
6:06 1 2 mph 1018.8mb 59f 66f
6:00 1 2 mph 1018.7mb 59f 65f
5:54 1 3 mph 1018.6mb 59f 65f
5:48  -  1 mph 1018.6mb 59f 65f
5:42  -  mph 1018.5mb 59f 65f
5:36  -  1 mph 1018.5mb 59f 65f
5:30  -  1 mph 1018.4mb 59f 64f
5:24  -  1 mph 1018.3mb 59f 65f
5:18  -  1 mph 1018.2mb 59f 65f
5:12  -  1 mph 1018.2mb 59f 64f
5:06 2 3 mph 1018.1mb 59f 64f
5:00 2 3 mph 1018.1mb 59f 65f
4:54 3 5 mph 1018.1mb 59f 66f
4:48 3 5 mph 1018.1mb 59f 66f
4:42 3 5 mph 1018.1mb 59f 67f
4:36 3
mph
1018mb 59f 65f
4:30  -  2 mph 1017.9mb 59f 65f
4:24 3 5 mph 1017.8mb 59f 65f
4:18 5 7 mph 1017.6mb 59f 65f
4:12 6
mph
1017.6mb 59f 65f
4:06 6 7 mph 1017.6mb 59f 66f
4:00 7 8 mph 1017.5mb 59f 66f
3:54 6 7 mph 1017.4mb 59f 66f
3:48 2 3 mph 1017.3mb 59f 66f
3:42 3 6 mph 1017.3mb 59f 67f
3:36 6 9 mph 1017.3mb 59f 71f
3:30 7 9 mph 1017.1mb 59f 71f
3:24 6 8 mph 1017.2mb 58f 70f
3:18 6
mph
1017.2mb 58f 69f
3:12 6 10 mph 1017.2mb 58f 67f
3:06 8 9 mph 1017.2mb 58f 67f
3:00 8 10 mph 1017.1mb 58f 67f
2:54 9 10 mph 1017.1mb 57f 66f
2:48 9
mph
1017.1mb 57f 65f
2:42 8 9 mph 1017.1mb 57f 66f
2:36 9
mph
1017mb 57f 67f
2:30 9
mph
1016.9mb 58f 66f
2:24 8 9 mph 1016.8mb 58f 66f
2:18 9
mph
1016.7mb 58f 65f
2:12 8 9 mph 1016.8mb 58f 65f
2:06 8 9 mph 1016.8mb 58f 65f
2:00 7 8 mph 1016.8mb 58f 66f
1:54 7 8 mph 1016.8mb 58f 68f
1:48 7 8 mph 1016.8mb 58f 67f
1:42 8
mph
1016.7mb 58f 67f
1:36 7 10 mph 1016.7mb 58f 66f
1:30 9 10 mph 1016.6mb 58f 66f
1:24 8 9 mph 1016.5mb 58f 66f
1:18 8
mph
1016.5mb 58f 65f
1:12 8 10 mph 1016.5mb 58f 65f
1:06 10
mph
1016.5mb 58f 67f
1:00 10 11 mph 1016.5mb 58f 67f
12:54 10 11 mph 1016.6mb 58f 67f
12:48 10
mph
1016.6mb 58f 67f
12:42 10
mph
1016.6mb 58f 67f
12:36 10
mph
1016.6mb 58f 67f
12:30 9 10 mph 1016.7mb 58f 67f
12:24 9 10 mph 1016.6mb 58f 68f
12:18 9 10 mph 1016.7mb 58f 68f
12:12 9 11 mph 1016.8mb 58f 67f
12:06 10 11 mph 1016.8mb 58f 67f
12:00 10 11 mph 1016.8mb 58f 67f
mer. 05/25 11:54 10 11 mph 1016.8mb 58f 68f
11:48  -  mph 1016.8mb 58f 69f
11:42  -  mph 1016.8mb 58f 68f
11:36  -  mph 1016.8mb 58f 68f
11:30 11 13 mph 1016.7mb 58f 69f
11:24 11 13 mph 1016.7mb 58f 69f
11:18  -  mph 1016.7mb 58f 69f
11:12  -  mph 1016.7mb 58f 69f
11:06  -  mph 1016.6mb 58f 69f
11:00  -  mph - 58f 69f
10:54  -  mph - 58f 70f
10:48  -  mph 1016.7mb - -
10:42  -  mph 1016.7mb - -
10:36  -  mph 1016.7mb - -
10:30 11
mph
1016.8mb 58f -
10:24 10 11 mph 1016.7mb 58f -
10:18  -  mph 1016.7mb 58f 70f
10:12  -  mph 1016.7mb 58f 71f
10:06  -  mph 1016.6mb 58f 71f
10:00 10
mph
1016.6mb 58f -
9:54 9 10 mph 1016.7mb 58f -
9:48  -  mph 1016.6mb 59f -
9:42  -  mph 1016.6mb 59f -
9:36  -  mph 1016.5mb 59f -
9:30 10 11 mph 1016.4mb - -